sensor_id;sensor_type;location;lat;lon;timestamp;P1;durP1;ratioP1;P2;durP2;ratioP2
28266;SDS011;15525;45.568;5.448;2023-07-20T00:00:51;4.90;;;3.33;;
28266;SDS011;15525;45.568;5.448;2023-07-20T00:03:18;7.25;;;3.65;;
28266;SDS011;15525;45.568;5.448;2023-07-20T00:05:48;6.97;;;3.65;;
28266;SDS011;15525;45.568;5.448;2023-07-20T00:08:14;5.50;;;4.00;;
28266;SDS011;15525;45.568;5.448;2023-07-20T00:10:40;6.32;;;4.18;;
28266;SDS011;15525;45.568;5.448;2023-07-20T00:13:06;10.25;;;5.20;;
28266;SDS011;15525;45.568;5.448;2023-07-20T00:15:31;7.72;;;5.22;;
28266;SDS011;15525;45.568;5.448;2023-07-20T00:17:57;8.40;;;5.03;;
28266;SDS011;15525;45.568;5.448;2023-07-20T00:20:23;11.07;;;5.43;;
28266;SDS011;15525;45.568;5.448;2023-07-20T00:22:50;9.80;;;5.88;;
28266;SDS011;15525;45.568;5.448;2023-07-20T00:25:20;8.50;;;5.00;;
28266;SDS011;15525;45.568;5.448;2023-07-20T00:27:45;8.32;;;5.50;;
28266;SDS011;15525;45.568;5.448;2023-07-20T00:30:11;10.48;;;5.38;;
28266;SDS011;15525;45.568;5.448;2023-07-20T00:32:37;9.40;;;4.70;;
28266;SDS011;15525;45.568;5.448;2023-07-20T00:35:02;6.78;;;4.85;;
28266;SDS011;15525;45.568;5.448;2023-07-20T00:37:28;10.18;;;4.75;;
28266;SDS011;15525;45.568;5.448;2023-07-20T00:39:54;7.95;;;4.78;;
28266;SDS011;15525;45.568;5.448;2023-07-20T00:42:19;9.00;;;5.03;;
28266;SDS011;15525;45.568;5.448;2023-07-20T00:44:45;10.27;;;5.50;;
28266;SDS011;15525;45.568;5.448;2023-07-20T00:47:10;7.68;;;5.05;;
28266;SDS011;15525;45.568;5.448;2023-07-20T00:49:36;6.53;;;4.43;;
28266;SDS011;15525;45.568;5.448;2023-07-20T00:52:03;7.47;;;4.53;;
28266;SDS011;15525;45.568;5.448;2023-07-20T00:54:31;7.53;;;4.93;;
28266;SDS011;15525;45.568;5.448;2023-07-20T00:56:57;6.05;;;4.25;;
28266;SDS011;15525;45.568;5.448;2023-07-20T00:59:23;7.55;;;5.05;;
28266;SDS011;15525;45.568;5.448;2023-07-20T01:01:49;9.57;;;4.45;;
28266;SDS011;15525;45.568;5.448;2023-07-20T01:04:15;9.35;;;4.68;;
28266;SDS011;15525;45.568;5.448;2023-07-20T01:14:11;8.07;;;4.07;;
28266;SDS011;15525;45.568;5.448;2023-07-20T01:16:37;5.63;;;4.25;;
28266;SDS011;15525;45.568;5.448;2023-07-20T01:19:02;5.85;;;3.88;;
28266;SDS011;15525;45.568;5.448;2023-07-20T01:21:32;8.95;;;4.18;;
28266;SDS011;15525;45.568;5.448;2023-07-20T01:24:11;6.90;;;4.35;;
28266;SDS011;15525;45.568;5.448;2023-07-20T01:29:31;8.75;;;4.15;;
28266;SDS011;15525;45.568;5.448;2023-07-20T01:32:08;5.88;;;4.35;;
28266;SDS011;15525;45.568;5.448;2023-07-20T01:34:35;8.73;;;4.18;;
28266;SDS011;15525;45.568;5.448;2023-07-20T01:37:02;8.05;;;4.10;;
28266;SDS011;15525;45.568;5.448;2023-07-20T01:39:28;8.02;;;4.10;;
28266;SDS011;15525;45.568;5.448;2023-07-20T01:41:54;6.60;;;4.03;;
28266;SDS011;15525;45.568;5.448;2023-07-20T01:44:20;8.07;;;4.13;;
28266;SDS011;15525;45.568;5.448;2023-07-20T01:46:46;6.05;;;3.40;;
28266;SDS011;15525;45.568;5.448;2023-07-20T01:49:11;6.93;;;3.85;;
28266;SDS011;15525;45.568;5.448;2023-07-20T01:51:37;7.57;;;4.03;;
28266;SDS011;15525;45.568;5.448;2023-07-20T01:54:02;5.15;;;3.53;;
28266;SDS011;15525;45.568;5.448;2023-07-20T01:56:27;6.13;;;3.70;;
28266;SDS011;15525;45.568;5.448;2023-07-20T01:58:53;6.85;;;3.42;;
28266;SDS011;15525;45.568;5.448;2023-07-20T02:01:18;6.60;;;3.45;;
28266;SDS011;15525;45.568;5.448;2023-07-20T02:03:44;6.93;;;3.85;;
28266;SDS011;15525;45.568;5.448;2023-07-20T02:06:09;5.53;;;3.80;;
28266;SDS011;15525;45.568;5.448;2023-07-20T02:08:35;7.72;;;3.70;;
28266;SDS011;15525;45.568;5.448;2023-07-20T02:11:00;5.53;;;3.58;;
28266;SDS011;15525;45.568;5.448;2023-07-20T02:13:26;7.43;;;3.67;;
28266;SDS011;15525;45.568;5.448;2023-07-20T02:15:51;6.45;;;3.70;;
28266;SDS011;15525;45.568;5.448;2023-07-20T02:18:17;6.00;;;3.50;;
28266;SDS011;15525;45.568;5.448;2023-07-20T02:20:42;7.00;;;3.70;;
28266;SDS011;15525;45.568;5.448;2023-07-20T02:23:08;5.07;;;3.42;;
28266;SDS011;15525;45.568;5.448;2023-07-20T02:25:33;7.88;;;4.40;;
28266;SDS011;15525;45.568;5.448;2023-07-20T02:27:59;5.75;;;3.88;;
28266;SDS011;15525;45.568;5.448;2023-07-20T02:30:24;4.97;;;3.45;;
28266;SDS011;15525;45.568;5.448;2023-07-20T02:32:50;6.18;;;3.78;;
28266;SDS011;15525;45.568;5.448;2023-07-20T02:35:16;8.43;;;3.72;;
28266;SDS011;15525;45.568;5.448;2023-07-20T02:37:41;6.35;;;4.10;;
28266;SDS011;15525;45.568;5.448;2023-07-20T02:40:07;6.25;;;3.88;;
28266;SDS011;15525;45.568;5.448;2023-07-20T02:42:33;7.22;;;3.95;;
28266;SDS011;15525;45.568;5.448;2023-07-20T02:44:59;6.43;;;3.60;;
28266;SDS011;15525;45.568;5.448;2023-07-20T02:47:24;6.50;;;4.45;;
28266;SDS011;15525;45.568;5.448;2023-07-20T02:49:50;6.50;;;4.20;;
28266;SDS011;15525;45.568;5.448;2023-07-20T02:52:15;6.43;;;4.20;;
28266;SDS011;15525;45.568;5.448;2023-07-20T02:54:41;7.03;;;4.18;;
28266;SDS011;15525;45.568;5.448;2023-07-20T02:57:06;5.05;;;3.60;;
28266;SDS011;15525;45.568;5.448;2023-07-20T02:59:32;8.88;;;3.72;;
28266;SDS011;15525;45.568;5.448;2023-07-20T03:01:57;7.47;;;3.75;;
28266;SDS011;15525;45.568;5.448;2023-07-20T03:04:25;7.38;;;3.63;;
28266;SDS011;15525;45.568;5.448;2023-07-20T03:06:51;4.63;;;3.60;;
28266;SDS011;15525;45.568;5.448;2023-07-20T03:09:16;6.25;;;3.47;;
28266;SDS011;15525;45.568;5.448;2023-07-20T03:11:42;7.45;;;3.53;;
28266;SDS011;15525;45.568;5.448;2023-07-20T03:14:07;5.70;;;3.50;;
28266;SDS011;15525;45.568;5.448;2023-07-20T03:16:33;6.65;;;3.42;;
28266;SDS011;15525;45.568;5.448;2023-07-20T03:18:59;4.85;;;3.28;;
28266;SDS011;15525;45.568;5.448;2023-07-20T03:21:25;6.50;;;3.30;;
28266;SDS011;15525;45.568;5.448;2023-07-20T03:23:51;5.47;;;3.75;;
28266;SDS011;15525;45.568;5.448;2023-07-20T03:26:16;5.82;;;3.65;;
28266;SDS011;15525;45.568;5.448;2023-07-20T03:28:42;5.88;;;3.53;;
28266;SDS011;15525;45.568;5.448;2023-07-20T03:31:07;5.20;;;3.60;;
28266;SDS011;15525;45.568;5.448;2023-07-20T03:33:33;5.97;;;4.00;;
28266;SDS011;15525;45.568;5.448;2023-07-20T03:35:59;6.97;;;3.70;;
28266;SDS011;15525;45.568;5.448;2023-07-20T03:38:25;6.30;;;3.88;;
28266;SDS011;15525;45.568;5.448;2023-07-20T03:40:59;5.60;;;3.75;;
28266;SDS011;15525;45.568;5.448;2023-07-20T03:43:27;8.13;;;3.40;;
28266;SDS011;15525;45.568;5.448;2023-07-20T03:45:53;5.63;;;3.67;;
28266;SDS011;15525;45.568;5.448;2023-07-20T03:48:21;5.38;;;4.00;;
28266;SDS011;15525;45.568;5.448;2023-07-20T03:50:48;6.72;;;3.78;;
28266;SDS011;15525;45.568;5.448;2023-07-20T03:53:14;5.18;;;3.47;;
28266;SDS011;15525;45.568;5.448;2023-07-20T03:55:41;8.25;;;4.30;;
28266;SDS011;15525;45.568;5.448;2023-07-20T03:58:09;6.75;;;3.53;;
28266;SDS011;15525;45.568;5.448;2023-07-20T04:00:34;7.82;;;3.95;;
28266;SDS011;15525;45.568;5.448;2023-07-20T04:03:00;6.85;;;3.75;;
28266;SDS011;15525;45.568;5.448;2023-07-20T04:05:26;6.97;;;3.75;;
28266;SDS011;15525;45.568;5.448;2023-07-20T04:07:51;8.25;;;3.63;;
28266;SDS011;15525;45.568;5.448;2023-07-20T04:10:17;7.03;;;3.58;;
28266;SDS011;15525;45.568;5.448;2023-07-20T04:12:44;7.43;;;3.65;;
28266;SDS011;15525;45.568;5.448;2023-07-20T04:15:12;6.43;;;3.47;;
28266;SDS011;15525;45.568;5.448;2023-07-20T04:17:38;6.72;;;3.33;;
28266;SDS011;15525;45.568;5.448;2023-07-20T04:20:04;6.03;;;3.33;;
28266;SDS011;15525;45.568;5.448;2023-07-20T04:22:31;5.57;;;3.53;;
28266;SDS011;15525;45.568;5.448;2023-07-20T04:24:56;5.72;;;3.75;;
28266;SDS011;15525;45.568;5.448;2023-07-20T04:27:22;7.43;;;3.42;;
28266;SDS011;15525;45.568;5.448;2023-07-20T04:29:47;7.88;;;4.07;;
28266;SDS011;15525;45.568;5.448;2023-07-20T04:32:13;9.45;;;4.00;;
28266;SDS011;15525;45.568;5.448;2023-07-20T04:34:38;7.80;;;3.80;;
28266;SDS011;15525;45.568;5.448;2023-07-20T04:37:04;6.10;;;3.63;;
28266;SDS011;15525;45.568;5.448;2023-07-20T04:39:30;7.10;;;4.13;;
28266;SDS011;15525;45.568;5.448;2023-07-20T04:41:55;8.30;;;3.60;;
28266;SDS011;15525;45.568;5.448;2023-07-20T04:44:21;7.57;;;3.70;;
28266;SDS011;15525;45.568;5.448;2023-07-20T04:46:47;7.43;;;3.50;;
28266;SDS011;15525;45.568;5.448;2023-07-20T04:49:12;6.15;;;3.55;;
28266;SDS011;15525;45.568;5.448;2023-07-20T04:51:38;5.95;;;3.70;;
28266;SDS011;15525;45.568;5.448;2023-07-20T04:54:04;5.53;;;3.90;;
28266;SDS011;15525;45.568;5.448;2023-07-20T04:56:29;8.23;;;3.55;;
28266;SDS011;15525;45.568;5.448;2023-07-20T04:58:55;7.93;;;5.45;;
28266;SDS011;15525;45.568;5.448;2023-07-20T05:01:20;8.80;;;4.88;;
28266;SDS011;15525;45.568;5.448;2023-07-20T05:03:46;5.32;;;3.90;;
28266;SDS011;15525;45.568;5.448;2023-07-20T05:06:11;7.53;;;3.80;;
28266;SDS011;15525;45.568;5.448;2023-07-20T05:08:37;7.63;;;3.78;;
28266;SDS011;15525;45.568;5.448;2023-07-20T05:11:04;11.10;;;3.90;;
28266;SDS011;15525;45.568;5.448;2023-07-20T05:13:29;7.95;;;4.18;;
28266;SDS011;15525;45.568;5.448;2023-07-20T05:15:55;6.35;;;4.30;;
28266;SDS011;15525;45.568;5.448;2023-07-20T05:18:20;11.02;;;4.38;;
28266;SDS011;15525;45.568;5.448;2023-07-20T05:20:47;11.65;;;4.57;;
28266;SDS011;15525;45.568;5.448;2023-07-20T05:23:13;8.02;;;4.93;;
28266;SDS011;15525;45.568;5.448;2023-07-20T05:25:38;11.25;;;5.03;;
28266;SDS011;15525;45.568;5.448;2023-07-20T05:28:04;10.38;;;5.45;;
28266;SDS011;15525;45.568;5.448;2023-07-20T05:30:29;11.43;;;5.75;;
28266;SDS011;15525;45.568;5.448;2023-07-20T05:32:55;14.35;;;5.32;;
28266;SDS011;15525;45.568;5.448;2023-07-20T05:35:21;16.02;;;5.72;;
28266;SDS011;15525;45.568;5.448;2023-07-20T05:37:47;19.75;;;6.97;;
28266;SDS011;15525;45.568;5.448;2023-07-20T05:40:13;14.50;;;6.50;;
28266;SDS011;15525;45.568;5.448;2023-07-20T05:42:43;10.75;;;6.22;;
28266;SDS011;15525;45.568;5.448;2023-07-20T05:45:08;9.57;;;5.47;;
28266;SDS011;15525;45.568;5.448;2023-07-20T05:47:34;10.32;;;5.50;;
28266;SDS011;15525;45.568;5.448;2023-07-20T05:50:00;9.23;;;5.57;;
28266;SDS011;15525;45.568;5.448;2023-07-20T05:52:25;12.95;;;5.38;;
28266;SDS011;15525;45.568;5.448;2023-07-20T05:54:51;8.10;;;4.82;;
28266;SDS011;15525;45.568;5.448;2023-07-20T05:57:16;11.85;;;4.90;;
28266;SDS011;15525;45.568;5.448;2023-07-20T05:59:42;11.90;;;4.78;;
28266;SDS011;15525;45.568;5.448;2023-07-20T06:02:09;10.23;;;4.35;;
28266;SDS011;15525;45.568;5.448;2023-07-20T06:04:35;11.10;;;4.35;;
28266;SDS011;15525;45.568;5.448;2023-07-20T06:07:00;9.63;;;3.35;;
28266;SDS011;15525;45.568;5.448;2023-07-20T06:09:26;9.13;;;3.85;;
28266;SDS011;15525;45.568;5.448;2023-07-20T06:11:52;8.75;;;3.38;;
28266;SDS011;15525;45.568;5.448;2023-07-20T06:14:18;7.63;;;3.97;;
28266;SDS011;15525;45.568;5.448;2023-07-20T06:16:43;6.15;;;3.63;;
28266;SDS011;15525;45.568;5.448;2023-07-20T06:19:09;9.98;;;3.53;;
28266;SDS011;15525;45.568;5.448;2023-07-20T06:21:37;9.50;;;3.83;;
28266;SDS011;15525;45.568;5.448;2023-07-20T06:24:02;7.18;;;3.17;;
28266;SDS011;15525;45.568;5.448;2023-07-20T06:26:28;5.45;;;3.10;;
28266;SDS011;15525;45.568;5.448;2023-07-20T06:28:55;6.90;;;2.88;;
28266;SDS011;15525;45.568;5.448;2023-07-20T06:31:21;6.38;;;3.13;;
28266;SDS011;15525;45.568;5.448;2023-07-20T06:33:46;5.82;;;3.10;;
28266;SDS011;15525;45.568;5.448;2023-07-20T06:36:12;8.65;;;3.30;;
28266;SDS011;15525;45.568;5.448;2023-07-20T06:38:37;7.78;;;3.22;;
28266;SDS011;15525;45.568;5.448;2023-07-20T06:41:03;5.70;;;3.53;;
28266;SDS011;15525;45.568;5.448;2023-07-20T06:43:28;6.20;;;3.13;;
28266;SDS011;15525;45.568;5.448;2023-07-20T06:45:54;5.93;;;3.17;;
28266;SDS011;15525;45.568;5.448;2023-07-20T06:48:19;5.35;;;3.35;;
28266;SDS011;15525;45.568;5.448;2023-07-20T06:50:45;5.18;;;3.38;;
28266;SDS011;15525;45.568;5.448;2023-07-20T06:53:11;5.28;;;3.10;;
28266;SDS011;15525;45.568;5.448;2023-07-20T06:55:36;5.75;;;3.25;;
28266;SDS011;15525;45.568;5.448;2023-07-20T06:58:01;8.05;;;2.88;;
28266;SDS011;15525;45.568;5.448;2023-07-20T07:00:28;8.25;;;3.08;;
28266;SDS011;15525;45.568;5.448;2023-07-20T07:02:53;8.25;;;3.22;;
28266;SDS011;15525;45.568;5.448;2023-07-20T07:05:19;5.95;;;2.67;;
28266;SDS011;15525;45.568;5.448;2023-07-20T07:07:44;7.60;;;3.45;;
28266;SDS011;15525;45.568;5.448;2023-07-20T07:10:09;5.60;;;2.92;;
28266;SDS011;15525;45.568;5.448;2023-07-20T07:12:35;7.35;;;3.53;;
28266;SDS011;15525;45.568;5.448;2023-07-20T07:15:01;9.30;;;3.35;;
28266;SDS011;15525;45.568;5.448;2023-07-20T07:17:27;14.75;;;4.43;;
28266;SDS011;15525;45.568;5.448;2023-07-20T07:19:53;11.82;;;3.60;;
28266;SDS011;15525;45.568;5.448;2023-07-20T07:22:20;4.38;;;2.92;;
28266;SDS011;15525;45.568;5.448;2023-07-20T07:24:46;9.48;;;3.08;;
28266;SDS011;15525;45.568;5.448;2023-07-20T07:27:12;9.27;;;3.15;;
28266;SDS011;15525;45.568;5.448;2023-07-20T07:29:37;7.03;;;3.22;;
28266;SDS011;15525;45.568;5.448;2023-07-20T07:32:03;5.40;;;2.75;;
28266;SDS011;15525;45.568;5.448;2023-07-20T07:34:29;4.72;;;2.70;;
28266;SDS011;15525;45.568;5.448;2023-07-20T07:36:54;6.55;;;2.90;;
28266;SDS011;15525;45.568;5.448;2023-07-20T07:39:20;5.43;;;2.78;;
28266;SDS011;15525;45.568;5.448;2023-07-20T07:41:45;5.03;;;2.88;;
28266;SDS011;15525;45.568;5.448;2023-07-20T07:44:11;6.03;;;2.95;;
28266;SDS011;15525;45.568;5.448;2023-07-20T07:46:36;5.65;;;3.15;;
28266;SDS011;15525;45.568;5.448;2023-07-20T07:49:02;7.28;;;2.83;;
28266;SDS011;15525;45.568;5.448;2023-07-20T07:51:28;4.53;;;2.60;;
28266;SDS011;15525;45.568;5.448;2023-07-20T07:53:53;5.13;;;2.47;;
28266;SDS011;15525;45.568;5.448;2023-07-20T07:56:19;4.35;;;2.65;;
28266;SDS011;15525;45.568;5.448;2023-07-20T07:58:48;5.72;;;2.85;;
28266;SDS011;15525;45.568;5.448;2023-07-20T08:01:14;3.05;;;2.40;;
28266;SDS011;15525;45.568;5.448;2023-07-20T08:03:39;4.93;;;2.33;;
28266;SDS011;15525;45.568;5.448;2023-07-20T08:06:05;3.50;;;2.50;;
28266;SDS011;15525;45.568;5.448;2023-07-20T08:08:31;4.47;;;2.38;;
28266;SDS011;15525;45.568;5.448;2023-07-20T08:10:57;3.15;;;2.35;;
28266;SDS011;15525;45.568;5.448;2023-07-20T08:13:23;4.25;;;2.10;;
28266;SDS011;15525;45.568;5.448;2023-07-20T08:15:49;5.00;;;2.45;;
28266;SDS011;15525;45.568;5.448;2023-07-20T08:18:18;3.50;;;1.98;;
28266;SDS011;15525;45.568;5.448;2023-07-20T08:20:44;3.80;;;2.25;;
28266;SDS011;15525;45.568;5.448;2023-07-20T08:23:10;4.38;;;2.00;;
28266;SDS011;15525;45.568;5.448;2023-07-20T08:25:36;8.13;;;2.40;;
28266;SDS011;15525;45.568;5.448;2023-07-20T08:28:04;4.43;;;2.22;;
28266;SDS011;15525;45.568;5.448;2023-07-20T08:30:39;6.32;;;2.22;;
28266;SDS011;15525;45.568;5.448;2023-07-20T08:33:05;2.90;;;2.13;;
28266;SDS011;15525;45.568;5.448;2023-07-20T08:35:30;5.15;;;2.33;;
28266;SDS011;15525;45.568;5.448;2023-07-20T08:37:56;3.55;;;2.08;;
28266;SDS011;15525;45.568;5.448;2023-07-20T08:40:21;3.10;;;1.95;;
28266;SDS011;15525;45.568;5.448;2023-07-20T08:42:46;2.95;;;2.30;;
28266;SDS011;15525;45.568;5.448;2023-07-20T08:45:13;2.85;;;1.90;;
28266;SDS011;15525;45.568;5.448;2023-07-20T08:47:40;2.22;;;2.00;;
28266;SDS011;15525;45.568;5.448;2023-07-20T08:50:07;4.13;;;2.08;;
28266;SDS011;15525;45.568;5.448;2023-07-20T08:52:34;2.17;;;1.70;;
28266;SDS011;15525;45.568;5.448;2023-07-20T08:54:59;2.45;;;1.88;;
28266;SDS011;15525;45.568;5.448;2023-07-20T08:57:28;3.40;;;1.98;;
28266;SDS011;15525;45.568;5.448;2023-07-20T08:59:57;2.65;;;1.73;;
28266;SDS011;15525;45.568;5.448;2023-07-20T09:02:24;2.17;;;1.90;;
28266;SDS011;15525;45.568;5.448;2023-07-20T09:04:52;2.95;;;1.98;;
28266;SDS011;15525;45.568;5.448;2023-07-20T09:07:17;2.50;;;1.90;;
28266;SDS011;15525;45.568;5.448;2023-07-20T09:09:45;2.40;;;1.67;;
28266;SDS011;15525;45.568;5.448;2023-07-20T09:12:14;3.38;;;1.92;;
28266;SDS011;15525;45.568;5.448;2023-07-20T09:14:44;2.33;;;1.80;;
28266;SDS011;15525;45.568;5.448;2023-07-20T09:17:13;2.33;;;1.70;;
28266;SDS011;15525;45.568;5.448;2023-07-20T09:19:45;1.83;;;1.58;;
28266;SDS011;15525;45.568;5.448;2023-07-20T09:22:11;2.55;;;1.90;;
28266;SDS011;15525;45.568;5.448;2023-07-20T09:24:37;3.60;;;1.95;;
28266;SDS011;15525;45.568;5.448;2023-07-20T09:27:03;2.40;;;1.88;;
28266;SDS011;15525;45.568;5.448;2023-07-20T09:29:31;4.38;;;2.15;;
28266;SDS011;15525;45.568;5.448;2023-07-20T09:32:00;2.13;;;1.92;;
28266;SDS011;15525;45.568;5.448;2023-07-20T09:34:29;3.58;;;1.77;;
28266;SDS011;15525;45.568;5.448;2023-07-20T09:36:58;3.50;;;1.67;;
28266;SDS011;15525;45.568;5.448;2023-07-20T09:39:25;3.92;;;2.03;;
28266;SDS011;15525;45.568;5.448;2023-07-20T09:41:51;8.27;;;2.30;;
28266;SDS011;15525;45.568;5.448;2023-07-20T09:44:17;2.15;;;1.80;;
28266;SDS011;15525;45.568;5.448;2023-07-20T09:46:49;3.65;;;2.10;;
28266;SDS011;15525;45.568;5.448;2023-07-20T09:49:16;3.42;;;1.98;;
28266;SDS011;15525;45.568;5.448;2023-07-20T09:51:42;3.05;;;1.98;;
28266;SDS011;15525;45.568;5.448;2023-07-20T09:54:09;7.03;;;1.90;;
28266;SDS011;15525;45.568;5.448;2023-07-20T09:56:35;3.78;;;2.15;;
28266;SDS011;15525;45.568;5.448;2023-07-20T09:59:03;3.83;;;2.35;;
28266;SDS011;15525;45.568;5.448;2023-07-20T10:01:29;4.35;;;2.20;;
28266;SDS011;15525;45.568;5.448;2023-07-20T10:03:56;4.25;;;2.28;;
28266;SDS011;15525;45.568;5.448;2023-07-20T10:06:26;4.43;;;2.50;;
28266;SDS011;15525;45.568;5.448;2023-07-20T10:08:56;4.05;;;2.47;;
28266;SDS011;15525;45.568;5.448;2023-07-20T10:11:32;3.67;;;2.33;;
28266;SDS011;15525;45.568;5.448;2023-07-20T10:14:03;4.15;;;2.60;;
28266;SDS011;15525;45.568;5.448;2023-07-20T10:16:36;5.07;;;2.10;;
28266;SDS011;15525;45.568;5.448;2023-07-20T10:19:17;2.88;;;2.30;;
28266;SDS011;15525;45.568;5.448;2023-07-20T10:21:56;5.38;;;2.38;;
28266;SDS011;15525;45.568;5.448;2023-07-20T10:24:25;4.13;;;2.45;;
28266;SDS011;15525;45.568;5.448;2023-07-20T10:26:51;2.70;;;2.10;;
28266;SDS011;15525;45.568;5.448;2023-07-20T10:29:16;3.45;;;2.35;;
28266;SDS011;15525;45.568;5.448;2023-07-20T10:31:42;3.55;;;2.30;;
28266;SDS011;15525;45.568;5.448;2023-07-20T10:34:09;3.83;;;2.25;;
28266;SDS011;15525;45.568;5.448;2023-07-20T10:36:35;4.47;;;2.53;;
28266;SDS011;15525;45.568;5.448;2023-07-20T10:39:21;2.60;;;2.22;;
28266;SDS011;15525;45.568;5.448;2023-07-20T10:41:59;3.53;;;2.28;;
28266;SDS011;15525;45.568;5.448;2023-07-20T10:44:28;4.13;;;2.33;;
28266;SDS011;15525;45.568;5.448;2023-07-20T10:47:01;2.88;;;2.45;;
28266;SDS011;15525;45.568;5.448;2023-07-20T10:49:32;5.78;;;2.40;;
28266;SDS011;15525;45.568;5.448;2023-07-20T10:52:00;4.70;;;2.50;;
28266;SDS011;15525;45.568;5.448;2023-07-20T10:57:21;3.65;;;2.47;;
28266;SDS011;15525;45.568;5.448;2023-07-20T10:59:48;7.82;;;2.35;;
28266;SDS011;15525;45.568;5.448;2023-07-20T11:02:17;4.78;;;2.20;;
28266;SDS011;15525;45.568;5.448;2023-07-20T11:04:47;4.07;;;2.30;;
28266;SDS011;15525;45.568;5.448;2023-07-20T11:07:17;3.20;;;2.45;;
28266;SDS011;15525;45.568;5.448;2023-07-20T11:10:23;5.15;;;2.10;;
28266;SDS011;15525;45.568;5.448;2023-07-20T11:18:25;2.38;;;2.17;;
28266;SDS011;15525;45.568;5.448;2023-07-20T11:20:51;3.10;;;2.08;;
28266;SDS011;15525;45.568;5.448;2023-07-20T11:23:19;2.70;;;2.13;;
28266;SDS011;15525;45.568;5.448;2023-07-20T11:25:45;3.55;;;2.33;;
28266;SDS011;15525;45.568;5.448;2023-07-20T11:28:11;2.55;;;2.20;;
28266;SDS011;15525;45.568;5.448;2023-07-20T11:30:37;3.50;;;2.17;;
28266;SDS011;15525;45.568;5.448;2023-07-20T11:33:04;4.25;;;2.10;;
28266;SDS011;15525;45.568;5.448;2023-07-20T11:35:30;3.65;;;2.13;;
28266;SDS011;15525;45.568;5.448;2023-07-20T11:37:56;2.78;;;1.90;;
28266;SDS011;15525;45.568;5.448;2023-07-20T11:40:22;3.80;;;2.28;;
28266;SDS011;15525;45.568;5.448;2023-07-20T11:42:49;3.05;;;2.03;;
28266;SDS011;15525;45.568;5.448;2023-07-20T11:45:16;3.13;;;2.08;;
28266;SDS011;15525;45.568;5.448;2023-07-20T11:47:43;3.55;;;2.30;;
28266;SDS011;15525;45.568;5.448;2023-07-20T11:50:08;2.38;;;1.90;;
28266;SDS011;15525;45.568;5.448;2023-07-20T11:52:35;4.05;;;2.10;;
28266;SDS011;15525;45.568;5.448;2023-07-20T11:55:02;3.90;;;2.08;;
28266;SDS011;15525;45.568;5.448;2023-07-20T11:57:28;2.10;;;1.90;;
28266;SDS011;15525;45.568;5.448;2023-07-20T11:59:57;2.70;;;2.10;;
28266;SDS011;15525;45.568;5.448;2023-07-20T12:02:34;7.25;;;2.47;;
28266;SDS011;15525;45.568;5.448;2023-07-20T12:05:00;2.33;;;2.00;;
28266;SDS011;15525;45.568;5.448;2023-07-20T12:07:27;5.55;;;2.20;;
28266;SDS011;15525;45.568;5.448;2023-07-20T12:12:53;2.95;;;1.75;;
28266;SDS011;15525;45.568;5.448;2023-07-20T12:17:46;2.53;;;2.00;;
28266;SDS011;15525;45.568;5.448;2023-07-20T12:20:24;7.13;;;2.00;;
28266;SDS011;15525;45.568;5.448;2023-07-20T12:23:01;3.13;;;2.17;;
28266;SDS011;15525;45.568;5.448;2023-07-20T12:25:48;3.40;;;2.22;;
28266;SDS011;15525;45.568;5.448;2023-07-20T12:28:17;3.20;;;2.17;;
28266;SDS011;15525;45.568;5.448;2023-07-20T12:30:45;2.63;;;2.10;;
28266;SDS011;15525;45.568;5.448;2023-07-20T12:33:11;3.58;;;1.90;;
28266;SDS011;15525;45.568;5.448;2023-07-20T12:35:40;3.50;;;2.15;;
28266;SDS011;15525;45.568;5.448;2023-07-20T12:38:06;3.17;;;1.80;;
28266;SDS011;15525;45.568;5.448;2023-07-20T12:40:31;2.72;;;2.20;;
28266;SDS011;15525;45.568;5.448;2023-07-20T12:42:57;3.67;;;2.05;;
28266;SDS011;15525;45.568;5.448;2023-07-20T12:45:23;3.42;;;2.25;;
28266;SDS011;15525;45.568;5.448;2023-07-20T12:47:49;2.47;;;2.15;;
28266;SDS011;15525;45.568;5.448;2023-07-20T12:50:14;3.35;;;1.83;;
28266;SDS011;15525;45.568;5.448;2023-07-20T12:52:40;4.40;;;2.30;;
28266;SDS011;15525;45.568;5.448;2023-07-20T12:55:06;2.65;;;2.28;;
28266;SDS011;15525;45.568;5.448;2023-07-20T12:57:34;4.05;;;2.17;;
28266;SDS011;15525;45.568;5.448;2023-07-20T13:00:00;3.60;;;2.38;;
28266;SDS011;15525;45.568;5.448;2023-07-20T13:02:26;3.63;;;2.10;;
28266;SDS011;15525;45.568;5.448;2023-07-20T13:04:52;4.20;;;1.90;;
28266;SDS011;15525;45.568;5.448;2023-07-20T13:07:18;4.97;;;2.40;;
28266;SDS011;15525;45.568;5.448;2023-07-20T13:09:58;4.93;;;2.17;;
28266;SDS011;15525;45.568;5.448;2023-07-20T13:12:25;4.43;;;1.98;;
28266;SDS011;15525;45.568;5.448;2023-07-20T13:14:52;5.22;;;1.92;;
28266;SDS011;15525;45.568;5.448;2023-07-20T13:17:18;4.78;;;2.60;;
28266;SDS011;15525;45.568;5.448;2023-07-20T13:19:43;3.58;;;2.10;;
28266;SDS011;15525;45.568;5.448;2023-07-20T13:22:08;3.95;;;2.10;;
28266;SDS011;15525;45.568;5.448;2023-07-20T13:24:34;2.40;;;2.10;;
28266;SDS011;15525;45.568;5.448;2023-07-20T13:26:59;4.72;;;2.20;;
28266;SDS011;15525;45.568;5.448;2023-07-20T13:29:25;4.65;;;2.50;;
28266;SDS011;15525;45.568;5.448;2023-07-20T13:31:51;2.22;;;1.75;;
28266;SDS011;15525;45.568;5.448;2023-07-20T13:34:16;2.30;;;1.80;;
28266;SDS011;15525;45.568;5.448;2023-07-20T13:36:41;2.40;;;2.00;;
28266;SDS011;15525;45.568;5.448;2023-07-20T13:39:07;3.95;;;2.30;;
28266;SDS011;15525;45.568;5.448;2023-07-20T13:41:33;4.85;;;2.13;;
28266;SDS011;15525;45.568;5.448;2023-07-20T13:43:59;2.47;;;1.90;;
28266;SDS011;15525;45.568;5.448;2023-07-20T13:46:24;5.70;;;2.25;;
28266;SDS011;15525;45.568;5.448;2023-07-20T13:48:50;3.40;;;2.30;;
28266;SDS011;15525;45.568;5.448;2023-07-20T13:51:16;8.15;;;4.20;;
28266;SDS011;15525;45.568;5.448;2023-07-20T13:53:41;3.15;;;2.20;;
28266;SDS011;15525;45.568;5.448;2023-07-20T13:56:07;6.30;;;2.50;;
28266;SDS011;15525;45.568;5.448;2023-07-20T13:58:32;2.40;;;2.10;;
28266;SDS011;15525;45.568;5.448;2023-07-20T14:00:58;3.08;;;2.10;;
28266;SDS011;15525;45.568;5.448;2023-07-20T14:03:23;3.60;;;2.22;;
28266;SDS011;15525;45.568;5.448;2023-07-20T14:05:49;6.05;;;3.22;;
28266;SDS011;15525;45.568;5.448;2023-07-20T14:08:15;5.20;;;2.20;;
28266;SDS011;15525;45.568;5.448;2023-07-20T14:10:40;2.95;;;2.47;;
28266;SDS011;15525;45.568;5.448;2023-07-20T14:13:06;3.72;;;2.13;;
28266;SDS011;15525;45.568;5.448;2023-07-20T14:15:31;3.35;;;2.05;;
28266;SDS011;15525;45.568;5.448;2023-07-20T14:17:58;3.50;;;2.25;;
28266;SDS011;15525;45.568;5.448;2023-07-20T14:20:23;2.42;;;2.00;;
28266;SDS011;15525;45.568;5.448;2023-07-20T14:22:49;4.57;;;2.47;;
28266;SDS011;15525;45.568;5.448;2023-07-20T14:25:14;4.00;;;1.90;;
28266;SDS011;15525;45.568;5.448;2023-07-20T14:27:40;8.13;;;3.55;;
28266;SDS011;15525;45.568;5.448;2023-07-20T14:30:05;6.63;;;4.88;;
28266;SDS011;15525;45.568;5.448;2023-07-20T14:32:32;2.53;;;1.83;;
28266;SDS011;15525;45.568;5.448;2023-07-20T14:34:58;3.10;;;2.08;;
28266;SDS011;15525;45.568;5.448;2023-07-20T14:37:24;3.30;;;2.00;;
28266;SDS011;15525;45.568;5.448;2023-07-20T14:39:49;2.40;;;1.95;;
28266;SDS011;15525;45.568;5.448;2023-07-20T14:42:15;2.05;;;1.88;;
28266;SDS011;15525;45.568;5.448;2023-07-20T14:44:40;4.85;;;2.17;;
28266;SDS011;15525;45.568;5.448;2023-07-20T14:47:06;2.53;;;2.03;;
28266;SDS011;15525;45.568;5.448;2023-07-20T14:49:31;3.05;;;2.10;;
28266;SDS011;15525;45.568;5.448;2023-07-20T14:51:57;4.05;;;2.20;;
28266;SDS011;15525;45.568;5.448;2023-07-20T14:54:22;3.85;;;2.10;;
28266;SDS011;15525;45.568;5.448;2023-07-20T14:56:50;3.00;;;1.90;;
28266;SDS011;15525;45.568;5.448;2023-07-20T14:59:18;4.45;;;2.05;;
28266;SDS011;15525;45.568;5.448;2023-07-20T15:01:44;2.92;;;1.90;;
28266;SDS011;15525;45.568;5.448;2023-07-20T15:04:13;2.88;;;2.00;;
28266;SDS011;15525;45.568;5.448;2023-07-20T15:06:39;3.97;;;2.00;;
28266;SDS011;15525;45.568;5.448;2023-07-20T15:09:05;4.07;;;2.05;;